sensor_id;sensor_type;location;lat;lon;timestamp;temperature;humidity
41762;DHT22;27441;50.860;0.258;2022-12-20T00:00:58;13.50;99.90
41762;DHT22;27441;50.860;0.258;2022-12-20T00:03:23;13.50;99.90
41762;DHT22;27441;50.860;0.258;2022-12-20T00:05:49;13.50;99.90
41762;DHT22;27441;50.860;0.258;2022-12-20T00:08:15;13.40;99.90
41762;DHT22;27441;50.860;0.258;2022-12-20T00:10:42;13.50;99.90
41762;DHT22;27441;50.860;0.258;2022-12-20T00:13:09;13.50;99.90
41762;DHT22;27441;50.860;0.258;2022-12-20T00:15:35;13.50;99.90
41762;DHT22;27441;50.860;0.258;2022-12-20T00:18:01;13.40;99.90
41762;DHT22;27441;50.860;0.258;2022-12-20T00:20:32;13.40;99.90
41762;DHT22;27441;50.860;0.258;2022-12-20T00:22:58;13.30;99.90
41762;DHT22;27441;50.860;0.258;2022-12-20T00:25:24;13.30;99.90
41762;DHT22;27441;50.860;0.258;2022-12-20T00:27:50;13.30;99.90
41762;DHT22;27441;50.860;0.258;2022-12-20T00:30:16;13.30;99.90
41762;DHT22;27441;50.860;0.258;2022-12-20T00:32:43;13.20;99.90
41762;DHT22;27441;50.860;0.258;2022-12-20T00:35:09;13.40;99.90
41762;DHT22;27441;50.860;0.258;2022-12-20T00:37:35;13.40;99.90
41762;DHT22;27441;50.860;0.258;2022-12-20T00:40:02;13.30;99.90
41762;DHT22;27441;50.860;0.258;2022-12-20T00:42:28;13.30;99.90
41762;DHT22;27441;50.860;0.258;2022-12-20T00:44:53;13.10;99.90
41762;DHT22;27441;50.860;0.258;2022-12-20T00:47:19;13.00;99.90
41762;DHT22;27441;50.860;0.258;2022-12-20T00:49:45;13.00;99.90
41762;DHT22;27441;50.860;0.258;2022-12-20T00:52:10;12.90;99.90
41762;DHT22;27441;50.860;0.258;2022-12-20T00:54:36;12.90;99.90
41762;DHT22;27441;50.860;0.258;2022-12-20T00:57:02;12.80;99.90
41762;DHT22;27441;50.860;0.258;2022-12-20T00:59:28;12.80;99.90
41762;DHT22;27441;50.860;0.258;2022-12-20T01:01:53;12.80;99.90
41762;DHT22;27441;50.860;0.258;2022-12-20T01:04:19;12.80;99.90
41762;DHT22;27441;50.860;0.258;2022-12-20T01:06:45;12.80;99.90
41762;DHT22;27441;50.860;0.258;2022-12-20T01:09:11;12.90;99.90
41762;DHT22;27441;50.860;0.258;2022-12-20T01:11:37;12.90;99.90
41762;DHT22;27441;50.860;0.258;2022-12-20T01:14:09;12.90;99.90
41762;DHT22;27441;50.860;0.258;2022-12-20T01:16:37;12.80;99.90
41762;DHT22;27441;50.860;0.258;2022-12-20T01:19:03;12.80;99.90
41762;DHT22;27441;50.860;0.258;2022-12-20T01:21:29;12.70;99.90
41762;DHT22;27441;50.860;0.258;2022-12-20T01:23:56;12.70;99.90
41762;DHT22;27441;50.860;0.258;2022-12-20T01:26:24;12.70;99.90
41762;DHT22;27441;50.860;0.258;2022-12-20T01:28:53;12.60;99.90
41762;DHT22;27441;50.860;0.258;2022-12-20T01:31:20;12.50;99.90
41762;DHT22;27441;50.860;0.258;2022-12-20T01:33:47;12.60;99.90
41762;DHT22;27441;50.860;0.258;2022-12-20T01:36:17;12.50;99.90
41762;DHT22;27441;50.860;0.258;2022-12-20T01:38:43;12.50;99.90
41762;DHT22;27441;50.860;0.258;2022-12-20T01:41:17;12.50;99.90
41762;DHT22;27441;50.860;0.258;2022-12-20T01:43:51;12.50;99.90
41762;DHT22;27441;50.860;0.258;2022-12-20T01:46:19;12.50;99.90
41762;DHT22;27441;50.860;0.258;2022-12-20T01:49:15;12.40;99.90
41762;DHT22;27441;50.860;0.258;2022-12-20T01:51:43;12.40;99.90
41762;DHT22;27441;50.860;0.258;2022-12-20T01:54:14;12.40;99.90
41762;DHT22;27441;50.860;0.258;2022-12-20T01:56:45;12.40;99.90
41762;DHT22;27441;50.860;0.258;2022-12-20T01:59:13;12.30;99.90
41762;DHT22;27441;50.860;0.258;2022-12-20T02:01:40;12.50;99.90
41762;DHT22;27441;50.860;0.258;2022-12-20T02:04:06;12.40;99.90
41762;DHT22;27441;50.860;0.258;2022-12-20T02:06:32;12.40;99.90
41762;DHT22;27441;50.860;0.258;2022-12-20T02:08:59;12.30;99.90
41762;DHT22;27441;50.860;0.258;2022-12-20T02:11:55;12.30;99.90
41762;DHT22;27441;50.860;0.258;2022-12-20T02:17:20;12.30;99.90
41762;DHT22;27441;50.860;0.258;2022-12-20T02:29:30;12.20;99.90
41762;DHT22;27441;50.860;0.258;2022-12-20T02:34:39;12.20;99.90
41762;DHT22;27441;50.860;0.258;2022-12-20T02:37:06;12.20;99.90
41762;DHT22;27441;50.860;0.258;2022-12-20T02:39:35;12.20;99.90
41762;DHT22;27441;50.860;0.258;2022-12-20T02:44:37;12.20;99.90
41762;DHT22;27441;50.860;0.258;2022-12-20T02:47:29;12.20;99.90
41762;DHT22;27441;50.860;0.258;2022-12-20T02:49:57;12.20;99.90
41762;DHT22;27441;50.860;0.258;2022-12-20T02:52:24;12.20;99.90
41762;DHT22;27441;50.860;0.258;2022-12-20T02:54:54;12.10;99.90
41762;DHT22;27441;50.860;0.258;2022-12-20T02:57:26;12.10;99.90
41762;DHT22;27441;50.860;0.258;2022-12-20T02:59:59;12.20;99.90
41762;DHT22;27441;50.860;0.258;2022-12-20T03:02:27;12.10;99.90
41762;DHT22;27441;50.860;0.258;2022-12-20T03:04:54;12.10;99.90
41762;DHT22;27441;50.860;0.258;2022-12-20T03:07:21;12.10;99.90
41762;DHT22;27441;50.860;0.258;2022-12-20T03:09:47;12.10;99.90
41762;DHT22;27441;50.860;0.258;2022-12-20T03:12:14;12.10;99.90
41762;DHT22;27441;50.860;0.258;2022-12-20T03:14:40;12.00;99.90
41762;DHT22;27441;50.860;0.258;2022-12-20T03:17:07;12.10;99.90
41762;DHT22;27441;50.860;0.258;2022-12-20T03:19:33;12.10;99.90
41762;DHT22;27441;50.860;0.258;2022-12-20T03:22:00;12.10;99.90
41762;DHT22;27441;50.860;0.258;2022-12-20T03:24:26;12.10;99.90
41762;DHT22;27441;50.860;0.258;2022-12-20T03:26:51;12.10;99.90
41762;DHT22;27441;50.860;0.258;2022-12-20T03:29:17;12.10;99.90
41762;DHT22;27441;50.860;0.258;2022-12-20T03:31:43;12.10;99.90
41762;DHT22;27441;50.860;0.258;2022-12-20T03:34:09;12.10;99.90
41762;DHT22;27441;50.860;0.258;2022-12-20T03:36:34;12.20;99.90
41762;DHT22;27441;50.860;0.258;2022-12-20T03:39:00;12.10;99.90
41762;DHT22;27441;50.860;0.258;2022-12-20T03:41:26;12.20;99.90
41762;DHT22;27441;50.860;0.258;2022-12-20T03:43:52;12.20;99.90
41762;DHT22;27441;50.860;0.258;2022-12-20T03:46:18;12.20;99.90
41762;DHT22;27441;50.860;0.258;2022-12-20T03:48:44;12.20;99.90
41762;DHT22;27441;50.860;0.258;2022-12-20T03:51:09;12.30;99.90
41762;DHT22;27441;50.860;0.258;2022-12-20T03:53:35;12.30;99.90
41762;DHT22;27441;50.860;0.258;2022-12-20T03:56:01;12.20;99.90
41762;DHT22;27441;50.860;0.258;2022-12-20T03:58:26;12.20;99.90
41762;DHT22;27441;50.860;0.258;2022-12-20T04:00:52;12.20;99.90
41762;DHT22;27441;50.860;0.258;2022-12-20T04:03:18;12.10;99.90
41762;DHT22;27441;50.860;0.258;2022-12-20T04:05:44;12.20;99.90
41762;DHT22;27441;50.860;0.258;2022-12-20T04:08:09;12.20;99.90
41762;DHT22;27441;50.860;0.258;2022-12-20T04:10:35;12.10;99.90
41762;DHT22;27441;50.860;0.258;2022-12-20T04:13:20;12.10;99.90
41762;DHT22;27441;50.860;0.258;2022-12-20T04:15:46;12.10;99.90
41762;DHT22;27441;50.860;0.258;2022-12-20T04:18:12;12.10;99.90
41762;DHT22;27441;50.860;0.258;2022-12-20T04:20:37;12.10;99.90
41762;DHT22;27441;50.860;0.258;2022-12-20T04:23:03;12.10;99.90
41762;DHT22;27441;50.860;0.258;2022-12-20T04:25:30;12.10;99.90
41762;DHT22;27441;50.860;0.258;2022-12-20T04:27:56;12.00;99.90
41762;DHT22;27441;50.860;0.258;2022-12-20T04:30:21;12.10;99.90
41762;DHT22;27441;50.860;0.258;2022-12-20T04:32:47;12.00;99.90
41762;DHT22;27441;50.860;0.258;2022-12-20T04:35:13;12.10;99.90
41762;DHT22;27441;50.860;0.258;2022-12-20T04:37:38;12.00;99.90
41762;DHT22;27441;50.860;0.258;2022-12-20T04:40:04;12.00;99.90
41762;DHT22;27441;50.860;0.258;2022-12-20T04:42:30;12.00;99.90
41762;DHT22;27441;50.860;0.258;2022-12-20T04:44:57;12.00;99.90
41762;DHT22;27441;50.860;0.258;2022-12-20T04:47:22;12.00;99.90
41762;DHT22;27441;50.860;0.258;2022-12-20T04:49:48;12.00;99.90
41762;DHT22;27441;50.860;0.258;2022-12-20T04:52:14;12.00;99.90
41762;DHT22;27441;50.860;0.258;2022-12-20T04:54:58;12.00;99.90
41762;DHT22;27441;50.860;0.258;2022-12-20T04:57:24;12.00;99.90
41762;DHT22;27441;50.860;0.258;2022-12-20T04:59:49;12.00;99.90
41762;DHT22;27441;50.860;0.258;2022-12-20T05:02:15;12.00;99.90
41762;DHT22;27441;50.860;0.258;2022-12-20T05:04:40;12.00;99.90
41762;DHT22;27441;50.860;0.258;2022-12-20T05:07:06;12.00;99.90
41762;DHT22;27441;50.860;0.258;2022-12-20T05:09:32;12.10;99.90
41762;DHT22;27441;50.860;0.258;2022-12-20T05:11:57;12.00;99.90
41762;DHT22;27441;50.860;0.258;2022-12-20T05:14:23;12.00;99.90
41762;DHT22;27441;50.860;0.258;2022-12-20T05:16:49;12.00;99.90
41762;DHT22;27441;50.860;0.258;2022-12-20T05:19:14;12.00;99.90
41762;DHT22;27441;50.860;0.258;2022-12-20T05:21:40;12.10;99.90
41762;DHT22;27441;50.860;0.258;2022-12-20T05:24:24;12.10;99.90
41762;DHT22;27441;50.860;0.258;2022-12-20T05:27:09;12.00;99.90
41762;DHT22;27441;50.860;0.258;2022-12-20T05:29:34;12.00;99.90
41762;DHT22;27441;50.860;0.258;2022-12-20T05:32:00;12.00;99.90
41762;DHT22;27441;50.860;0.258;2022-12-20T05:34:26;12.00;99.90
41762;DHT22;27441;50.860;0.258;2022-12-20T05:36:51;12.00;99.90
41762;DHT22;27441;50.860;0.258;2022-12-20T05:39:17;12.10;99.90
41762;DHT22;27441;50.860;0.258;2022-12-20T05:41:43;12.10;99.90
41762;DHT22;27441;50.860;0.258;2022-12-20T05:44:08;12.10;99.90
41762;DHT22;27441;50.860;0.258;2022-12-20T05:46:34;12.10;99.90
41762;DHT22;27441;50.860;0.258;2022-12-20T05:49:00;12.10;99.90
41762;DHT22;27441;50.860;0.258;2022-12-20T05:51:25;12.00;99.90
41762;DHT22;27441;50.860;0.258;2022-12-20T05:53:51;12.00;99.90
41762;DHT22;27441;50.860;0.258;2022-12-20T05:56:17;12.00;99.90
41762;DHT22;27441;50.860;0.258;2022-12-20T05:58:42;12.00;99.90
41762;DHT22;27441;50.860;0.258;2022-12-20T06:01:09;12.00;99.90
41762;DHT22;27441;50.860;0.258;2022-12-20T06:03:36;11.90;99.90
41762;DHT22;27441;50.860;0.258;2022-12-20T06:06:02;11.90;99.90
41762;DHT22;27441;50.860;0.258;2022-12-20T06:08:28;11.90;99.90
41762;DHT22;27441;50.860;0.258;2022-12-20T06:10:53;11.90;99.90
41762;DHT22;27441;50.860;0.258;2022-12-20T06:13:19;12.00;99.90
41762;DHT22;27441;50.860;0.258;2022-12-20T06:15:45;12.00;99.90
41762;DHT22;27441;50.860;0.258;2022-12-20T06:18:11;12.10;99.90
41762;DHT22;27441;50.860;0.258;2022-12-20T06:20:36;12.10;99.90
41762;DHT22;27441;50.860;0.258;2022-12-20T06:23:03;12.10;99.90
41762;DHT22;27441;50.860;0.258;2022-12-20T06:25:29;12.00;99.90
41762;DHT22;27441;50.860;0.258;2022-12-20T06:27:55;12.00;99.90
41762;DHT22;27441;50.860;0.258;2022-12-20T06:30:21;12.10;99.90
41762;DHT22;27441;50.860;0.258;2022-12-20T06:32:46;12.10;99.90
41762;DHT22;27441;50.860;0.258;2022-12-20T06:35:13;12.10;99.90
41762;DHT22;27441;50.860;0.258;2022-12-20T06:37:39;12.10;99.90
41762;DHT22;27441;50.860;0.258;2022-12-20T06:40:09;12.00;99.90
41762;DHT22;27441;50.860;0.258;2022-12-20T06:42:35;12.00;99.90
41762;DHT22;27441;50.860;0.258;2022-12-20T06:45:01;12.00;99.90
41762;DHT22;27441;50.860;0.258;2022-12-20T06:47:27;11.90;99.90
41762;DHT22;27441;50.860;0.258;2022-12-20T06:49:53;11.80;99.90
41762;DHT22;27441;50.860;0.258;2022-12-20T06:52:18;11.80;99.90
41762;DHT22;27441;50.860;0.258;2022-12-20T06:54:44;11.80;99.90
41762;DHT22;27441;50.860;0.258;2022-12-20T06:57:10;11.90;99.90
41762;DHT22;27441;50.860;0.258;2022-12-20T06:59:35;11.90;99.90
41762;DHT22;27441;50.860;0.258;2022-12-20T07:02:01;11.90;99.90
41762;DHT22;27441;50.860;0.258;2022-12-20T07:04:27;11.90;99.90
41762;DHT22;27441;50.860;0.258;2022-12-20T07:06:52;12.00;99.90
41762;DHT22;27441;50.860;0.258;2022-12-20T07:09:18;12.00;99.90
41762;DHT22;27441;50.860;0.258;2022-12-20T07:11:44;12.10;99.90
41762;DHT22;27441;50.860;0.258;2022-12-20T07:14:10;12.10;99.90
41762;DHT22;27441;50.860;0.258;2022-12-20T07:16:36;12.10;99.90
41762;DHT22;27441;50.860;0.258;2022-12-20T07:19:02;12.00;99.90
41762;DHT22;27441;50.860;0.258;2022-12-20T07:21:28;12.00;99.90
41762;DHT22;27441;50.860;0.258;2022-12-20T07:23:54;11.90;99.90
41762;DHT22;27441;50.860;0.258;2022-12-20T07:26:20;11.90;99.90
41762;DHT22;27441;50.860;0.258;2022-12-20T07:28:46;11.90;99.90
41762;DHT22;27441;50.860;0.258;2022-12-20T07:31:11;11.80;99.90
41762;DHT22;27441;50.860;0.258;2022-12-20T07:33:38;11.80;99.90
41762;DHT22;27441;50.860;0.258;2022-12-20T07:36:06;11.70;99.90
41762;DHT22;27441;50.860;0.258;2022-12-20T07:38:33;11.70;99.90
41762;DHT22;27441;50.860;0.258;2022-12-20T07:41:00;11.70;99.90
41762;DHT22;27441;50.860;0.258;2022-12-20T07:43:30;11.70;99.90
41762;DHT22;27441;50.860;0.258;2022-12-20T07:45:56;11.70;99.90
41762;DHT22;27441;50.860;0.258;2022-12-20T07:48:22;11.70;99.90
41762;DHT22;27441;50.860;0.258;2022-12-20T07:50:51;11.70;99.90
41762;DHT22;27441;50.860;0.258;2022-12-20T07:53:19;11.70;99.90
41762;DHT22;27441;50.860;0.258;2022-12-20T07:55:45;11.70;99.90
41762;DHT22;27441;50.860;0.258;2022-12-20T07:58:13;11.70;99.90
41762;DHT22;27441;50.860;0.258;2022-12-20T08:00:39;11.60;99.90
41762;DHT22;27441;50.860;0.258;2022-12-20T08:03:16;11.60;99.90
41762;DHT22;27441;50.860;0.258;2022-12-20T08:05:46;11.50;99.90
41762;DHT22;27441;50.860;0.258;2022-12-20T08:08:13;11.50;99.90
41762;DHT22;27441;50.860;0.258;2022-12-20T08:10:39;11.40;99.90
41762;DHT22;27441;50.860;0.258;2022-12-20T08:13:06;11.30;99.90
41762;DHT22;27441;50.860;0.258;2022-12-20T08:15:34;11.20;99.90
41762;DHT22;27441;50.860;0.258;2022-12-20T08:18:00;11.20;99.90
41762;DHT22;27441;50.860;0.258;2022-12-20T08:20:26;11.10;99.90
41762;DHT22;27441;50.860;0.258;2022-12-20T08:22:52;11.00;99.90
41762;DHT22;27441;50.860;0.258;2022-12-20T08:25:18;11.00;99.90
41762;DHT22;27441;50.860;0.258;2022-12-20T08:27:44;11.00;99.90
41762;DHT22;27441;50.860;0.258;2022-12-20T08:30:10;11.00;99.90
41762;DHT22;27441;50.860;0.258;2022-12-20T08:32:36;11.00;99.90
41762;DHT22;27441;50.860;0.258;2022-12-20T08:35:03;11.00;99.90
41762;DHT22;27441;50.860;0.258;2022-12-20T08:37:29;11.00;99.90
41762;DHT22;27441;50.860;0.258;2022-12-20T08:39:54;11.00;99.90
41762;DHT22;27441;50.860;0.258;2022-12-20T08:42:20;11.00;99.90
41762;DHT22;27441;50.860;0.258;2022-12-20T08:44:46;11.00;99.90
41762;DHT22;27441;50.860;0.258;2022-12-20T08:47:11;11.00;99.90
41762;DHT22;27441;50.860;0.258;2022-12-20T08:49:37;11.00;99.90
41762;DHT22;27441;50.860;0.258;2022-12-20T08:52:03;11.00;99.90
41762;DHT22;27441;50.860;0.258;2022-12-20T08:54:28;11.00;99.90
41762;DHT22;27441;50.860;0.258;2022-12-20T08:56:54;10.90;99.90
41762;DHT22;27441;50.860;0.258;2022-12-20T08:59:20;10.90;99.90
41762;DHT22;27441;50.860;0.258;2022-12-20T09:01:46;11.00;99.90
41762;DHT22;27441;50.860;0.258;2022-12-20T09:04:11;10.90;99.90
41762;DHT22;27441;50.860;0.258;2022-12-20T09:06:37;10.90;99.90
41762;DHT22;27441;50.860;0.258;2022-12-20T09:09:04;10.90;99.90
41762;DHT22;27441;50.860;0.258;2022-12-20T09:11:30;10.80;99.90
41762;DHT22;27441;50.860;0.258;2022-12-20T09:13:57;10.80;99.90
41762;DHT22;27441;50.860;0.258;2022-12-20T09:16:25;10.80;99.90
41762;DHT22;27441;50.860;0.258;2022-12-20T09:18:53;10.80;99.90
41762;DHT22;27441;50.860;0.258;2022-12-20T09:21:19;10.70;99.90
41762;DHT22;27441;50.860;0.258;2022-12-20T09:23:46;10.70;99.90
41762;DHT22;27441;50.860;0.258;2022-12-20T09:26:14;10.70;99.90
41762;DHT22;27441;50.860;0.258;2022-12-20T09:28:41;10.70;99.90
41762;DHT22;27441;50.860;0.258;2022-12-20T09:31:08;10.70;99.90
41762;DHT22;27441;50.860;0.258;2022-12-20T09:33:35;10.70;99.90
41762;DHT22;27441;50.860;0.258;2022-12-20T09:36:02;10.70;99.90
41762;DHT22;27441;50.860;0.258;2022-12-20T09:38:28;10.60;99.90
41762;DHT22;27441;50.860;0.258;2022-12-20T09:41:02;10.60;99.90
41762;DHT22;27441;50.860;0.258;2022-12-20T09:43:28;10.60;99.90
41762;DHT22;27441;50.860;0.258;2022-12-20T09:45:57;10.60;99.90
41762;DHT22;27441;50.860;0.258;2022-12-20T09:48:24;10.50;99.90
41762;DHT22;27441;50.860;0.258;2022-12-20T09:56:06;10.50;99.90
41762;DHT22;27441;50.860;0.258;2022-12-20T10:01:18;10.40;99.90
41762;DHT22;27441;50.860;0.258;2022-12-20T10:03:45;10.40;99.90
41762;DHT22;27441;50.860;0.258;2022-12-20T10:06:55;10.30;99.90
41762;DHT22;27441;50.860;0.258;2022-12-20T10:15:11;10.20;99.90
41762;DHT22;27441;50.860;0.258;2022-12-20T10:18:14;10.20;99.90
41762;DHT22;27441;50.860;0.258;2022-12-20T10:20:57;10.20;99.90
41762;DHT22;27441;50.860;0.258;2022-12-20T10:26:11;10.10;99.90
41762;DHT22;27441;50.860;0.258;2022-12-20T10:28:38;10.20;99.90
41762;DHT22;27441;50.860;0.258;2022-12-20T10:31:15;10.20;99.90
41762;DHT22;27441;50.860;0.258;2022-12-20T10:33:41;10.20;99.90
41762;DHT22;27441;50.860;0.258;2022-12-20T10:36:27;10.20;99.90
41762;DHT22;27441;50.860;0.258;2022-12-20T10:38:56;10.20;99.90
41762;DHT22;27441;50.860;0.258;2022-12-20T10:41:27;10.20;99.90
41762;DHT22;27441;50.860;0.258;2022-12-20T10:44:14;10.30;99.90
41762;DHT22;27441;50.860;0.258;2022-12-20T10:46:44;10.30;99.90
41762;DHT22;27441;50.860;0.258;2022-12-20T10:52:13;10.30;99.90
41762;DHT22;27441;50.860;0.258;2022-12-20T10:54:42;10.30;99.90
41762;DHT22;27441;50.860;0.258;2022-12-20T10:57:25;10.20;99.90
41762;DHT22;27441;50.860;0.258;2022-12-20T10:59:58;10.20;99.90
41762;DHT22;27441;50.860;0.258;2022-12-20T11:02:26;10.10;99.90
41762;DHT22;27441;50.860;0.258;2022-12-20T11:05:15;10.10;99.90
41762;DHT22;27441;50.860;0.258;2022-12-20T11:10:27;10.10;99.90
41762;DHT22;27441;50.860;0.258;2022-12-20T11:13:01;10.20;99.90
41762;DHT22;27441;50.860;0.258;2022-12-20T11:15:30;10.20;99.90
41762;DHT22;27441;50.860;0.258;2022-12-20T11:18:07;10.20;99.90
41762;DHT22;27441;50.860;0.258;2022-12-20T11:23:46;10.20;99.90
41762;DHT22;27441;50.860;0.258;2022-12-20T11:34:36;10.10;99.90
41762;DHT22;27441;50.860;0.258;2022-12-20T11:37:09;10.10;99.90
41762;DHT22;27441;50.860;0.258;2022-12-20T11:50:28;9.90;99.90
41762;DHT22;27441;50.860;0.258;2022-12-20T11:53:12;9.80;99.90
41762;DHT22;27441;50.860;0.258;2022-12-20T11:55:42;9.70;99.90
41762;DHT22;27441;50.860;0.258;2022-12-20T12:03:31;9.60;99.90
41762;DHT22;27441;50.860;0.258;2022-12-20T12:06:28;9.60;99.90
41762;DHT22;27441;50.860;0.258;2022-12-20T12:12:03;9.60;99.90
41762;DHT22;27441;50.860;0.258;2022-12-20T12:17:17;9.90;99.90
41762;DHT22;27441;50.860;0.258;2022-12-20T12:19:49;9.90;99.90
41762;DHT22;27441;50.860;0.258;2022-12-20T12:22:21;9.90;99.90
41762;DHT22;27441;50.860;0.258;2022-12-20T12:24:52;9.90;99.90
41762;DHT22;27441;50.860;0.258;2022-12-20T12:27:23;9.80;99.90
41762;DHT22;27441;50.860;0.258;2022-12-20T12:29:50;9.90;99.90
41762;DHT22;27441;50.860;0.258;2022-12-20T12:32:36;10.00;99.90
41762;DHT22;27441;50.860;0.258;2022-12-20T12:45:57;10.30;99.90
41762;DHT22;27441;50.860;0.258;2022-12-20T12:48:40;10.40;99.90
41762;DHT22;27441;50.860;0.258;2022-12-20T12:51:07;10.30;99.90
41762;DHT22;27441;50.860;0.258;2022-12-20T12:53:49;10.20;99.90
41762;DHT22;27441;50.860;0.258;2022-12-20T13:01:51;9.80;99.90
41762;DHT22;27441;50.860;0.258;2022-12-20T13:04:27;9.70;99.90
41762;DHT22;27441;50.860;0.258;2022-12-20T13:07:24;9.60;99.90
41762;DHT22;27441;50.860;0.258;2022-12-20T13:09:50;9.50;99.90
41762;DHT22;27441;50.860;0.258;2022-12-20T13:17:54;9.30;99.90
41762;DHT22;27441;50.860;0.258;2022-12-20T13:20:32;9.20;99.90
41762;DHT22;27441;50.860;0.258;2022-12-20T13:30:42;9.10;99.90
41762;DHT22;27441;50.860;0.258;2022-12-20T13:33:21;9.10;99.90
41762;DHT22;27441;50.860;0.258;2022-12-20T13:35:54;9.10;99.90
41762;DHT22;27441;50.860;0.258;2022-12-20T13:43:49;9.20;99.90
41762;DHT22;27441;50.860;0.258;2022-12-20T13:46:26;9.20;99.90
41762;DHT22;27441;50.860;0.258;2022-12-20T13:49:00;9.10;99.90
41762;DHT22;27441;50.860;0.258;2022-12-20T13:51:27;9.10;99.90
41762;DHT22;27441;50.860;0.258;2022-12-20T13:54:02;9.10;99.90
41762;DHT22;27441;50.860;0.258;2022-12-20T13:56:45;9.10;99.90
41762;DHT22;27441;50.860;0.258;2022-12-20T13:59:23;9.00;99.90
41762;DHT22;27441;50.860;0.258;2022-12-20T14:01:56;9.00;99.90
41762;DHT22;27441;50.860;0.258;2022-12-20T14:04:25;8.90;99.90
41762;DHT22;27441;50.860;0.258;2022-12-20T14:06:53;8.90;99.90
41762;DHT22;27441;50.860;0.258;2022-12-20T14:09:27;8.90;99.90
41762;DHT22;27441;50.860;0.258;2022-12-20T14:11:54;8.90;99.90
41762;DHT22;27441;50.860;0.258;2022-12-20T14:14:26;8.90;99.90
41762;DHT22;27441;50.860;0.258;2022-12-20T14:16:53;9.00;99.90
41762;DHT22;27441;50.860;0.258;2022-12-20T14:19:19;9.00;99.90
41762;DHT22;27441;50.860;0.258;2022-12-20T14:21:45;9.10;99.90
41762;DHT22;27441;50.860;0.258;2022-12-20T14:24:19;9.10;99.90
41762;DHT22;27441;50.860;0.258;2022-12-20T14:26:46;9.10;99.90
41762;DHT22;27441;50.860;0.258;2022-12-20T14:29:17;9.00;99.90
41762;DHT22;27441;50.860;0.258;2022-12-20T14:31:46;9.00;99.90
41762;DHT22;27441;50.860;0.258;2022-12-20T14:34:23;9.00;99.90
41762;DHT22;27441;50.860;0.258;2022-12-20T14:36:50;9.10;99.90
41762;DHT22;27441;50.860;0.258;2022-12-20T14:39:28;9.00;99.90
41762;DHT22;27441;50.860;0.258;2022-12-20T14:44:32;9.00;99.90
41762;DHT22;27441;50.860;0.258;2022-12-20T14:47:12;9.00;99.90
41762;DHT22;27441;50.860;0.258;2022-12-20T14:49:40;8.90;99.90
41762;DHT22;27441;50.860;0.258;2022-12-20T14:52:19;8.90;99.90
41762;DHT22;27441;50.860;0.258;2022-12-20T14:54:55;8.90;99.90
41762;DHT22;27441;50.860;0.258;2022-12-20T14:57:36;8.90;99.90
41762;DHT22;27441;50.860;0.258;2022-12-20T15:00:30;8.90;99.90
41762;DHT22;27441;50.860;0.258;2022-12-20T15:03:00;8.80;99.90
41762;DHT22;27441;50.860;0.258;2022-12-20T15:08:28;8.70;99.90
41762;DHT22;27441;50.860;0.258;2022-12-20T15:13:39;8.70;99.90
41762;DHT22;27441;50.860;0.258;2022-12-20T15:16:17;8.70;99.90
41762;DHT22;27441;50.860;0.258;2022-12-20T15:18:44;8.70;99.90
41762;DHT22;27441;50.860;0.258;2022-12-20T15:21:17;8.70;99.90
41762;DHT22;27441;50.860;0.258;2022-12-20T15:23:50;8.70;99.90
41762;DHT22;27441;50.860;0.258;2022-12-20T15:26:19;8.60;99.90
41762;DHT22;27441;50.860;0.258;2022-12-20T15:28:45;8.60;99.90
41762;DHT22;27441;50.860;0.258;2022-12-20T15:31:13;8.50;99.90
41762;DHT22;27441;50.860;0.258;2022-12-20T15:33:40;8.40;99.90
41762;DHT22;27441;50.860;0.258;2022-12-20T15:36:08;8.40;99.90
41762;DHT22;27441;50.860;0.258;2022-12-20T15:38:38;8.40;99.90
41762;DHT22;27441;50.860;0.258;2022-12-20T15:41:05;8.30;99.90
41762;DHT22;27441;50.860;0.258;2022-12-20T15:43:37;8.20;99.90
41762;DHT22;27441;50.860;0.258;2022-12-20T15:46:03;8.20;99.90
41762;DHT22;27441;50.860;0.258;2022-12-20T15:48:29;8.10;99.90
41762;DHT22;27441;50.860;0.258;2022-12-20T15:50:57;8.10;99.90
41762;DHT22;27441;50.860;0.258;2022-12-20T15:53:30;8.00;99.90
41762;DHT22;27441;50.860;0.258;2022-12-20T15:55:56;8.00;99.90
41762;DHT22;27441;50.860;0.258;2022-12-20T15:58:24;7.90;99.90
41762;DHT22;27441;50.860;0.258;2022-12-20T16:00:53;7.90;99.90
41762;DHT22;27441;50.860;0.258;2022-12-20T16:03:22;7.80;99.90
41762;DHT22;27441;50.860;0.258;2022-12-20T16:05:49;7.80;99.90
41762;DHT22;27441;50.860;0.258;2022-12-20T16:08:18;7.80;99.90
41762;DHT22;27441;50.860;0.258;2022-12-20T16:10:45;7.70;99.90
41762;DHT22;27441;50.860;0.258;2022-12-20T16:13:24;7.70;99.90
41762;DHT22;27441;50.860;0.258;2022-12-20T16:15:51;7.70;99.90
41762;DHT22;27441;50.860;0.258;2022-12-20T16:18:16;7.60;99.90
41762;DHT22;27441;50.860;0.258;2022-12-20T16:20:42;7.60;99.90
41762;DHT22;27441;50.860;0.258;2022-12-20T16:23:18;7.60;99.90
41762;DHT22;27441;50.860;0.258;2022-12-20T16:25:44;7.60;99.90
41762;DHT22;27441;50.860;0.258;2022-12-20T16:28:10;7.60;99.90
41762;DHT22;27441;50.860;0.258;2022-12-20T16:30:37;7.50;99.90
41762;DHT22;27441;50.860;0.258;2022-12-20T16:33:03;7.50;99.90
41762;DHT22;27441;50.860;0.258;2022-12-20T16:35:32;7.50;99.90
41762;DHT22;27441;50.860;0.258;2022-12-20T16:37:59;7.50;99.90
41762;DHT22;27441;50.860;0.258;2022-12-20T16:40:27;7.40;99.90
41762;DHT22;27441;50.860;0.258;2022-12-20T16:42:55;7.30;99.90
41762;DHT22;27441;50.860;0.258;2022-12-20T16:45:27;7.20;99.90
41762;DHT22;27441;50.860;0.258;2022-12-20T16:47:54;7.20;99.90
41762;DHT22;27441;50.860;0.258;2022-12-20T16:50:21;7.10;99.90
41762;DHT22;27441;50.860;0.258;2022-12-20T16:52:47;7.00;99.90
41762;DHT22;27441;50.860;0.258;2022-12-20T16:55:25;6.90;99.90
41762;DHT22;27441;50.860;0.258;2022-12-20T16:57:51;6.90;99.90
41762;DHT22;27441;50.860;0.258;2022-12-20T17:00:23;6.90;99.90
41762;DHT22;27441;50.860;0.258;2022-12-20T17:02:50;6.80;99.90
41762;DHT22;27441;50.860;0.258;2022-12-20T17:05:31;6.80;99.90
41762;DHT22;27441;50.860;0.258;2022-12-20T17:07:57;6.70;99.90
41762;DHT22;27441;50.860;0.258;2022-12-20T17:10:25;6.70;99.90
41762;DHT22;27441;50.860;0.258;2022-12-20T17:12:51;6.70;99.90
41762;DHT22;27441;50.860;0.258;2022-12-20T17:15:27;6.70;99.90
41762;DHT22;27441;50.860;0.258;2022-12-20T17:17:53;6.70;99.90
41762;DHT22;27441;50.860;0.258;2022-12-20T17:20:20;6.70;99.90
41762;DHT22;27441;50.860;0.258;2022-12-20T17:22:48;6.80;99.90
41762;DHT22;27441;50.860;0.258;2022-12-20T17:27:49;6.90;99.90
41762;DHT22;27441;50.860;0.258;2022-12-20T17:30:15;6.90;99.90
41762;DHT22;27441;50.860;0.258;2022-12-20T17:32:42;7.00;99.90
41762;DHT22;27441;50.860;0.258;2022-12-20T17:35:18;7.00;99.90
41762;DHT22;27441;50.860;0.258;2022-12-20T17:37:45;7.00;99.90
41762;DHT22;27441;50.860;0.258;2022-12-20T17:40:13;7.00;99.90
41762;DHT22;27441;50.860;0.258;2022-12-20T17:42:39;7.00;99.90
41762;DHT22;27441;50.860;0.258;2022-12-20T17:45:19;7.00;99.90